Accueil
METAR-TAF:

METAR-TAF

Aéroports :

Landivisiau, France

Base aérienne

latitude: 48-31N, longitude: 004-09W, altitude: 106 m

Observation

Le bulletin a été fait il y a 33 minutes, à 04:30 UTC
Vent 7 kt de ouest
Température 10°C
Humidité 100%
Pression 1020 hPa
Visibilité: 6000 m
Ciel couvert à une hauteur de 400 ft

METAR: LFRJ 180430Z AUTO 27007KT 6000 OVC004 10/10 Q1020

Heure: 06:03 (05:03 UTC)


TAF: absent

Observations et prévisions météorologiques de plus de 4000 aéroports (messages METAR et TAF).

Les stations disponibles sont représentées par des disques jaunes et rouges sur la carte.

Passer la souris dessus pour voir le nom de la station.

Cliquer dessus pour voir les observations et prévisions météorologiques.

Pour changer de carte: cliquez sur les boutons verts avec une croix noire pour zoomer, sur le bouton vert avec un tiret pour effectuer un zoom arrière, ou sur les flèches vertes pour les cartes adjacentes.


METAR-TAF: